createdAt,value
2019-06-26T00:00:08.129Z,0.00
2019-06-26T00:01:08.105Z,0.00
2019-06-26T00:02:08.091Z,0.00
2019-06-26T00:03:08.090Z,0.00
2019-06-26T00:04:08.092Z,0.00
2019-06-26T00:05:08.062Z,0.00
2019-06-26T00:06:08.075Z,0.00
2019-06-26T00:07:08.040Z,0.00
2019-06-26T00:08:08.026Z,0.00
2019-06-26T00:09:08.041Z,0.00
2019-06-26T00:10:08.014Z,0.00
2019-06-26T00:11:07.994Z,0.00
2019-06-26T00:12:07.984Z,0.00
2019-06-26T00:13:07.975Z,0.00
2019-06-26T00:14:07.967Z,0.00
2019-06-26T00:15:07.969Z,0.00
2019-06-26T00:16:07.958Z,0.00
2019-06-26T00:17:07.931Z,0.00
2019-06-26T00:18:07.923Z,0.00
2019-06-26T00:19:07.924Z,0.00
2019-06-26T00:20:07.920Z,0.00
2019-06-26T00:21:07.901Z,0.00
2019-06-26T00:22:07.879Z,0.00
2019-06-26T00:23:07.868Z,0.00
2019-06-26T00:24:07.999Z,0.00
2019-06-26T00:25:07.843Z,0.00
2019-06-26T00:26:07.850Z,0.00
2019-06-26T00:27:07.827Z,0.00
2019-06-26T00:28:07.809Z,0.00
2019-06-26T00:29:07.794Z,0.00
2019-06-26T00:30:07.782Z,0.00
2019-06-26T00:31:07.792Z,0.00
2019-06-26T00:32:07.765Z,0.00
2019-06-26T00:33:07.752Z,0.00
2019-06-26T00:34:07.738Z,0.00
2019-06-26T00:35:07.730Z,0.00
2019-06-26T00:36:07.740Z,0.00
2019-06-26T00:37:07.708Z,0.00
2019-06-26T00:38:07.719Z,0.00
2019-06-26T00:39:07.693Z,0.00
2019-06-26T00:40:07.676Z,0.00
2019-06-26T00:41:07.666Z,0.00
2019-06-26T00:42:07.663Z,0.00
2019-06-26T00:43:07.645Z,0.00
2019-06-26T00:44:07.631Z,0.00
2019-06-26T00:45:07.753Z,0.00
2019-06-26T00:46:07.607Z,0.00
2019-06-26T00:47:07.625Z,0.00
2019-06-26T00:48:07.588Z,0.00
2019-06-26T00:49:07.578Z,0.00
2019-06-26T00:50:07.562Z,0.00
2019-06-26T00:51:07.553Z,0.00
2019-06-26T00:52:07.541Z,0.00
2019-06-26T00:53:07.550Z,0.00
2019-06-26T00:54:07.523Z,0.00
2019-06-26T00:55:07.506Z,0.00
2019-06-26T00:56:07.513Z,0.00
2019-06-26T00:57:07.493Z,0.00
2019-06-26T00:58:07.514Z,0.00
2019-06-26T00:59:07.480Z,0.00
2019-06-26T01:00:07.467Z,0.00
2019-06-26T01:01:07.448Z,0.00
2019-06-26T01:02:07.439Z,0.00
2019-06-26T01:03:07.426Z,0.00
2019-06-26T01:04:07.438Z,0.00
2019-06-26T01:05:07.396Z,0.00
2019-06-26T01:06:07.389Z,0.00
2019-06-26T01:07:07.381Z,0.00
2019-06-26T01:08:07.367Z,0.00
2019-06-26T01:09:07.356Z,0.00
2019-06-26T01:10:07.365Z,0.00
2019-06-26T01:11:07.332Z,0.00
2019-06-26T01:12:07.320Z,0.00
2019-06-26T01:13:07.309Z,0.00
2019-06-26T01:14:07.315Z,0.00
2019-06-26T01:15:07.304Z,0.00
2019-06-26T01:16:07.280Z,0.00
2019-06-26T01:17:07.269Z,0.00
2019-06-26T01:18:07.267Z,0.00
2019-06-26T01:19:07.245Z,0.00
2019-06-26T01:20:07.264Z,0.00
2019-06-26T01:21:07.223Z,0.00
2019-06-26T01:22:07.218Z,0.00
2019-06-26T01:23:07.198Z,0.00
2019-06-26T01:24:07.216Z,0.00
2019-06-26T01:25:07.171Z,0.00
2019-06-26T01:26:07.170Z,0.00
2019-06-26T01:27:07.156Z,0.00
2019-06-26T01:28:07.150Z,0.00
2019-06-26T01:29:07.128Z,0.00
2019-06-26T01:30:07.142Z,0.00
2019-06-26T01:31:07.120Z,0.00
2019-06-26T01:32:07.114Z,0.00
2019-06-26T01:33:07.093Z,0.00
2019-06-26T01:34:07.081Z,0.00
2019-06-26T01:35:07.065Z,0.00
2019-06-26T01:36:07.076Z,0.00
2019-06-26T01:37:07.043Z,0.00
2019-06-26T01:38:07.030Z,0.00
2019-06-26T01:39:07.039Z,0.00
2019-06-26T01:40:07.021Z,0.00
2019-06-26T01:41:07.019Z,0.00
2019-06-26T01:42:06.986Z,0.00
2019-06-26T01:43:06.990Z,0.00
2019-06-26T01:44:15.009Z,0.00
2019-06-26T01:45:07.951Z,0.00
2019-06-26T01:46:06.947Z,0.00
2019-06-26T01:47:06.947Z,0.00
2019-06-26T01:48:06.928Z,0.00
2019-06-26T01:49:06.916Z,0.00
2019-06-26T01:50:06.896Z,0.00
2019-06-26T01:51:06.896Z,0.00
2019-06-26T01:52:06.907Z,0.00
2019-06-26T01:53:06.869Z,0.00
2019-06-26T01:54:06.851Z,0.00
2019-06-26T01:55:06.843Z,0.00
2019-06-26T01:56:06.836Z,0.00
2019-06-26T01:57:06.818Z,0.00
2019-06-26T01:58:06.823Z,0.00
2019-06-26T01:59:06.810Z,0.00
2019-06-26T02:00:06.792Z,0.00
2019-06-26T02:01:06.776Z,0.00
2019-06-26T02:02:06.776Z,0.00
2019-06-26T02:03:06.775Z,0.00
2019-06-26T02:04:06.755Z,0.00
2019-06-26T02:05:06.888Z,0.00
2019-06-26T02:06:06.720Z,0.00
2019-06-26T02:07:06.710Z,0.00
2019-06-26T02:08:06.703Z,0.00
2019-06-26T02:09:06.712Z,0.00
2019-06-26T02:10:06.697Z,0.00
2019-06-26T02:11:06.698Z,0.00
2019-06-26T02:12:06.695Z,0.00
2019-06-26T02:13:06.655Z,0.00
2019-06-26T02:14:06.634Z,0.00
2019-06-26T02:15:06.631Z,0.00
2019-06-26T02:16:06.611Z,0.00
2019-06-26T02:17:06.610Z,0.00
2019-06-26T02:18:06.603Z,0.00
2019-06-26T02:19:06.581Z,0.00
2019-06-26T02:20:06.617Z,0.00
2019-06-26T02:21:06.557Z,0.00
2019-06-26T02:22:06.553Z,0.00
2019-06-26T02:23:06.535Z,0.00
2019-06-26T02:24:06.552Z,0.00
2019-06-26T02:25:06.520Z,0.00
2019-06-26T02:26:06.520Z,0.00
2019-06-26T02:27:06.511Z,0.00
2019-06-26T02:28:06.487Z,0.00
2019-06-26T02:29:06.469Z,0.00
2019-06-26T02:30:06.459Z,0.00
2019-06-26T02:31:06.495Z,0.00
2019-06-26T02:32:06.438Z,0.00
2019-06-26T02:33:06.423Z,0.00
2019-06-26T02:34:06.417Z,0.00
2019-06-26T02:35:09.983Z,0.00
2019-06-26T02:36:06.392Z,0.00
2019-06-26T02:37:06.398Z,0.00
2019-06-26T02:38:06.373Z,0.00
2019-06-26T02:39:06.373Z,0.00
2019-06-26T02:40:06.351Z,0.00
2019-06-26T02:41:06.357Z,0.00
2019-06-26T02:42:06.344Z,0.00
2019-06-26T02:43:07.194Z,0.00
2019-06-26T02:44:06.312Z,0.00
2019-06-26T02:45:06.344Z,0.00
2019-06-26T02:46:06.299Z,0.00
2019-06-26T02:47:19.670Z,0.00
2019-06-26T02:48:07.266Z,0.00
2019-06-26T02:49:06.256Z,0.00
2019-06-26T02:50:06.243Z,0.00
2019-06-26T02:51:06.251Z,0.00
2019-06-26T02:52:06.223Z,0.00
2019-06-26T02:53:06.219Z,0.00
2019-06-26T02:54:06.201Z,0.00
2019-06-26T02:55:06.192Z,5.62
2019-06-26T02:56:06.197Z,5.62
2019-06-26T02:57:06.163Z,5.62
2019-06-26T02:58:06.153Z,5.62
2019-06-26T02:59:06.150Z,5.62
2019-06-26T03:00:06.140Z,5.62
2019-06-26T03:01:06.118Z,5.62
2019-06-26T03:02:06.109Z,5.62
2019-06-26T03:03:06.096Z,11.25
2019-06-26T03:04:06.090Z,11.25
2019-06-26T03:05:06.095Z,11.25
2019-06-26T03:06:06.072Z,11.25
2019-06-26T03:07:06.052Z,11.25
2019-06-26T03:08:06.058Z,11.25
2019-06-26T03:09:06.039Z,16.88
2019-06-26T03:10:06.021Z,16.88
2019-06-26T03:11:06.009Z,16.88
2019-06-26T03:12:06.013Z,16.88
2019-06-26T03:13:06.022Z,22.50
2019-06-26T03:14:05.982Z,22.50
2019-06-26T03:15:09.213Z,22.50
2019-06-26T03:16:05.994Z,22.50
2019-06-26T03:17:05.947Z,28.12
2019-06-26T03:18:05.936Z,28.12
2019-06-26T03:19:05.932Z,28.12
2019-06-26T03:20:05.911Z,33.75
2019-06-26T03:21:05.899Z,33.75
2019-06-26T03:22:05.894Z,39.38
2019-06-26T03:23:05.874Z,39.38
2019-06-26T03:24:05.923Z,39.38
2019-06-26T03:25:05.875Z,45.00
2019-06-26T03:26:05.849Z,45.00
2019-06-26T03:27:08.898Z,50.62
2019-06-26T03:28:05.822Z,50.62
2019-06-26T03:29:05.809Z,56.25
2019-06-26T03:30:05.838Z,56.25
2019-06-26T03:31:05.798Z,61.88
2019-06-26T03:32:05.774Z,61.88
2019-06-26T03:33:05.774Z,67.50
2019-06-26T03:34:05.752Z,67.50
2019-06-26T03:35:05.801Z,73.12
2019-06-26T03:36:05.764Z,73.12
2019-06-26T03:37:05.719Z,78.75
2019-06-26T03:38:05.709Z,78.75
2019-06-26T03:39:05.847Z,84.38
2019-06-26T03:40:05.695Z,90.00
2019-06-26T03:41:05.677Z,95.62
2019-06-26T03:42:05.721Z,95.62
2019-06-26T03:43:05.652Z,101.25
2019-06-26T03:44:05.650Z,106.88
2019-06-26T03:45:05.631Z,106.88
2019-06-26T03:46:05.667Z,106.88
2019-06-26T03:47:05.616Z,112.50
2019-06-26T03:48:05.607Z,118.12
2019-06-26T03:49:05.629Z,118.12
2019-06-26T03:50:05.578Z,123.75
2019-06-26T03:51:05.589Z,129.38
2019-06-26T03:52:05.562Z,135.00
2019-06-26T03:53:05.546Z,135.00
2019-06-26T03:54:05.556Z,140.62
2019-06-26T03:55:05.521Z,146.25
2019-06-26T03:56:05.508Z,151.88
2019-06-26T03:57:05.496Z,157.50
2019-06-26T03:58:05.486Z,157.50
2019-06-26T03:59:05.475Z,163.12
2019-06-26T04:00:05.480Z,168.75
2019-06-26T04:01:05.452Z,174.38
2019-06-26T04:02:05.494Z,180.00
2019-06-26T04:03:05.430Z,185.62
2019-06-26T04:04:05.419Z,191.25
2019-06-26T04:05:05.548Z,191.25
2019-06-26T04:06:05.401Z,196.88
2019-06-26T04:07:05.392Z,202.50
2019-06-26T04:08:05.410Z,208.12
2019-06-26T04:09:05.367Z,213.75
2019-06-26T04:10:05.433Z,219.38
2019-06-26T04:11:05.345Z,225.00
2019-06-26T04:12:05.337Z,236.25
2019-06-26T04:13:05.325Z,241.88
2019-06-26T04:14:05.344Z,253.12
2019-06-26T04:15:05.301Z,253.12
2019-06-26T04:16:05.289Z,258.75
2019-06-26T04:17:05.286Z,270.00
2019-06-26T04:18:05.271Z,275.62
2019-06-26T04:19:05.260Z,281.25
2019-06-26T04:20:05.280Z,292.50
2019-06-26T04:21:05.237Z,303.75
2019-06-26T04:22:05.229Z,315.00
2019-06-26T04:23:05.210Z,331.88
2019-06-26T04:24:05.205Z,365.62
2019-06-26T04:25:05.194Z,388.12
2019-06-26T04:26:05.197Z,405.00
2019-06-26T04:27:05.166Z,410.62
2019-06-26T04:28:06.444Z,416.25
2019-06-26T04:29:05.147Z,421.88
2019-06-26T04:30:05.176Z,433.12
2019-06-26T04:31:05.125Z,450.00
2019-06-26T04:32:05.123Z,461.25
2019-06-26T04:33:05.115Z,478.12
2019-06-26T04:34:05.099Z,506.25
2019-06-26T04:35:05.085Z,534.38
2019-06-26T04:36:05.093Z,568.12
2019-06-26T04:37:05.061Z,613.12
2019-06-26T04:38:05.046Z,663.75
2019-06-26T04:39:05.041Z,691.88
2019-06-26T04:40:05.032Z,691.88
2019-06-26T04:41:05.035Z,697.50
2019-06-26T04:42:05.015Z,720.00
2019-06-26T04:43:04.993Z,731.25
2019-06-26T04:44:04.992Z,731.25
2019-06-26T04:45:04.981Z,731.25
2019-06-26T04:46:04.975Z,714.38
2019-06-26T04:47:04.957Z,697.50
2019-06-26T04:48:07.182Z,708.75
2019-06-26T04:49:04.928Z,697.50
2019-06-26T04:50:04.925Z,680.62
2019-06-26T04:51:04.918Z,697.50
2019-06-26T04:52:04.936Z,731.25
2019-06-26T04:53:04.891Z,736.88
2019-06-26T04:54:04.883Z,703.12
2019-06-26T04:55:04.865Z,725.62
2019-06-26T04:56:04.865Z,731.25
2019-06-26T04:57:04.855Z,714.38
2019-06-26T04:58:04.852Z,691.88
2019-06-26T04:59:04.819Z,675.00
2019-06-26T05:00:04.814Z,697.50
2019-06-26T05:01:04.808Z,720.00
2019-06-26T05:02:04.791Z,725.62
2019-06-26T05:03:04.780Z,720.00
2019-06-26T05:04:04.874Z,736.88
2019-06-26T05:05:04.774Z,753.75
2019-06-26T05:06:04.749Z,742.50
2019-06-26T05:07:04.743Z,753.75
2019-06-26T05:08:04.732Z,770.62
2019-06-26T05:09:04.722Z,781.88
2019-06-26T05:10:04.751Z,793.12
2019-06-26T05:11:04.693Z,787.50
2019-06-26T05:12:04.683Z,770.62
2019-06-26T05:13:04.678Z,787.50
2019-06-26T05:14:04.660Z,810.00
2019-06-26T05:15:04.657Z,810.00
2019-06-26T05:16:14.202Z,810.00
2019-06-26T05:17:05.635Z,832.50
2019-06-26T05:18:04.625Z,860.62
2019-06-26T05:19:04.611Z,877.50
2019-06-26T05:20:04.615Z,871.88
2019-06-26T05:21:04.588Z,888.75
2019-06-26T05:22:04.582Z,905.62
2019-06-26T05:23:04.573Z,956.25
2019-06-26T05:24:04.557Z,945.00
2019-06-26T05:25:04.557Z,911.25
2019-06-26T05:26:04.546Z,905.62
2019-06-26T05:27:04.522Z,950.62
2019-06-26T05:28:08.121Z,984.38
2019-06-26T05:29:04.504Z,1023.75
2019-06-26T05:30:04.575Z,1029.38
2019-06-26T05:31:04.481Z,1018.12
2019-06-26T05:32:04.488Z,1040.62
2019-06-26T05:33:04.465Z,1057.50
2019-06-26T05:34:04.453Z,1181.25
2019-06-26T05:35:04.439Z,1170.00
2019-06-26T05:36:04.440Z,1181.25
2019-06-26T05:37:04.418Z,1164.38
2019-06-26T05:38:04.408Z,1125.00
2019-06-26T05:39:04.394Z,1203.75
2019-06-26T05:40:04.412Z,1411.88
2019-06-26T05:41:04.383Z,1479.38
2019-06-26T05:42:06.643Z,1417.50
2019-06-26T05:43:04.379Z,1338.75
2019-06-26T05:44:04.344Z,1141.88
2019-06-26T05:45:04.357Z,1051.88
2019-06-26T05:46:04.342Z,1023.75
2019-06-26T05:47:07.067Z,990.00
2019-06-26T05:48:04.308Z,973.12
2019-06-26T05:49:04.302Z,961.88
2019-06-26T05:50:04.280Z,956.25
2019-06-26T05:51:04.309Z,956.25
2019-06-26T05:52:04.345Z,961.88
2019-06-26T05:53:04.252Z,967.50
2019-06-26T05:54:04.247Z,978.75
2019-06-26T05:55:04.238Z,984.38
2019-06-26T05:56:04.221Z,990.00
2019-06-26T05:57:04.219Z,995.62
2019-06-26T05:58:04.229Z,984.38
2019-06-26T05:59:04.192Z,978.75
2019-06-26T06:00:04.182Z,984.38
2019-06-26T06:01:04.183Z,995.62
2019-06-26T06:02:04.186Z,1029.38
2019-06-26T06:03:04.195Z,1040.62
2019-06-26T06:04:04.136Z,1080.00
2019-06-26T06:05:04.124Z,1271.25
2019-06-26T06:06:04.114Z,1558.12
2019-06-26T06:07:04.112Z,1693.12
2019-06-26T06:08:04.109Z,1676.25
2019-06-26T06:09:04.090Z,1704.38
2019-06-26T06:10:04.079Z,1766.25
2019-06-26T06:11:04.069Z,1811.25
2019-06-26T06:12:04.056Z,1828.12
2019-06-26T06:13:04.054Z,1856.25
2019-06-26T06:14:04.037Z,1912.50
2019-06-26T06:15:04.021Z,2008.12
2019-06-26T06:16:06.329Z,1940.62
2019-06-26T06:17:04.003Z,1991.25
2019-06-26T06:18:04.022Z,1895.62
2019-06-26T06:19:03.984Z,1811.25
2019-06-26T06:20:03.978Z,1935.00
2019-06-26T06:21:03.958Z,2058.75
2019-06-26T06:22:03.959Z,2064.38
2019-06-26T06:23:03.946Z,2165.62
2019-06-26T06:24:03.952Z,2137.50
2019-06-26T06:25:03.920Z,2160.00
2019-06-26T06:26:03.910Z,2261.25
2019-06-26T06:27:03.906Z,2233.12
2019-06-26T06:28:03.895Z,2334.38
2019-06-26T06:29:03.887Z,2334.38
2019-06-26T06:30:03.920Z,2323.12
2019-06-26T06:31:03.861Z,2334.38
2019-06-26T06:32:03.845Z,2401.88
2019-06-26T06:33:03.832Z,2390.62
2019-06-26T06:34:03.824Z,2401.88
2019-06-26T06:35:03.919Z,2441.25
2019-06-26T06:36:03.818Z,2475.00
2019-06-26T06:37:03.797Z,2435.62
2019-06-26T06:38:03.804Z,2435.62
2019-06-26T06:39:03.783Z,2553.75
2019-06-26T06:40:03.772Z,2508.75
2019-06-26T06:41:03.777Z,2559.38
2019-06-26T06:42:03.747Z,2581.88
2019-06-26T06:43:03.741Z,2733.75
2019-06-26T06:44:03.756Z,2790.00
2019-06-26T06:45:03.716Z,2610.00
2019-06-26T06:46:03.717Z,2593.12
2019-06-26T06:47:05.621Z,2655.00
2019-06-26T06:48:03.689Z,2733.75
2019-06-26T06:49:03.674Z,2840.62
2019-06-26T06:50:03.775Z,2953.12
2019-06-26T06:51:03.689Z,2992.50
2019-06-26T06:52:03.664Z,2913.75
2019-06-26T06:53:03.634Z,2823.75
2019-06-26T06:54:03.623Z,3060.00
2019-06-26T06:55:03.612Z,3020.62
2019-06-26T06:56:03.624Z,2925.00
2019-06-26T06:57:03.618Z,3031.88
2019-06-26T06:58:03.582Z,3138.75
2019-06-26T06:59:03.575Z,3093.75
2019-06-26T07:00:03.572Z,3082.50
2019-06-26T07:01:03.556Z,3009.38
2019-06-26T07:02:03.554Z,2992.50
2019-06-26T07:03:03.552Z,3195.00
2019-06-26T07:04:03.530Z,3268.12
2019-06-26T07:05:03.516Z,3240.00
2019-06-26T07:06:03.509Z,3166.88
2019-06-26T07:07:03.499Z,3268.12
2019-06-26T07:08:03.489Z,3296.25
2019-06-26T07:09:03.490Z,3183.75
2019-06-26T07:10:03.527Z,3313.12
2019-06-26T07:11:03.461Z,3493.12
2019-06-26T07:12:03.441Z,3358.12
2019-06-26T07:13:03.434Z,3268.12
2019-06-26T07:14:03.436Z,3363.75
2019-06-26T07:15:03.418Z,3476.25
2019-06-26T07:16:03.411Z,3442.50
2019-06-26T07:17:16.080Z,3369.38
2019-06-26T07:18:04.393Z,3403.12
2019-06-26T07:19:03.380Z,3313.12
2019-06-26T07:20:03.386Z,3324.38
2019-06-26T07:21:03.365Z,3391.88
2019-06-26T07:22:06.975Z,3453.75
2019-06-26T07:23:03.352Z,3465.00
2019-06-26T07:24:03.378Z,3510.00
2019-06-26T07:25:03.323Z,3313.12
2019-06-26T07:26:03.305Z,3459.38
2019-06-26T07:27:03.304Z,3414.38
2019-06-26T07:28:03.363Z,3408.75
2019-06-26T07:29:03.286Z,3346.88
2019-06-26T07:30:03.321Z,3307.50
2019-06-26T07:31:03.267Z,3341.25
2019-06-26T07:32:03.265Z,3369.38
2019-06-26T07:33:03.240Z,3172.50
2019-06-26T07:34:03.237Z,3166.88
2019-06-26T07:35:03.234Z,3470.62
2019-06-26T07:36:03.229Z,3594.38
2019-06-26T07:37:03.204Z,3566.25
2019-06-26T07:38:03.188Z,3459.38
2019-06-26T07:39:03.189Z,3375.00
2019-06-26T07:40:03.225Z,3436.88
2019-06-26T07:41:03.407Z,3515.62
2019-06-26T07:42:03.172Z,3504.38
2019-06-26T07:43:03.140Z,3515.62
2019-06-26T07:44:03.137Z,3667.50
2019-06-26T07:45:03.128Z,3616.88
2019-06-26T07:46:03.125Z,3414.38
2019-06-26T07:47:03.111Z,3375.00
2019-06-26T07:48:03.110Z,3633.75
2019-06-26T07:49:03.106Z,3633.75
2019-06-26T07:50:03.139Z,3678.75
2019-06-26T07:51:03.084Z,3847.50
2019-06-26T07:52:03.069Z,3819.38
2019-06-26T07:53:03.050Z,3768.75
2019-06-26T07:54:03.049Z,3853.12
2019-06-26T07:55:03.051Z,4010.62
2019-06-26T07:56:03.021Z,3858.75
2019-06-26T07:57:03.011Z,3774.38
2019-06-26T07:58:03.018Z,3746.25
2019-06-26T07:59:02.992Z,3785.62
2019-06-26T08:00:02.992Z,3881.25
2019-06-26T08:01:03.020Z,3971.25
2019-06-26T08:02:02.967Z,4061.25
2019-06-26T08:03:04.516Z,4005.00
2019-06-26T08:04:02.944Z,3864.38
2019-06-26T08:05:02.942Z,4038.75
2019-06-26T08:06:02.934Z,4151.25
2019-06-26T08:07:02.955Z,4224.38
2019-06-26T08:08:02.908Z,4235.62
2019-06-26T08:09:02.905Z,4156.88
2019-06-26T08:10:02.892Z,4365.00
2019-06-26T08:11:06.177Z,4404.38
2019-06-26T08:12:02.868Z,4370.62
2019-06-26T08:13:02.869Z,4370.62
2019-06-26T08:14:02.857Z,4471.88
2019-06-26T08:15:02.839Z,4471.88
2019-06-26T08:16:02.831Z,4348.12
2019-06-26T08:17:02.824Z,4348.12
2019-06-26T08:18:02.821Z,4590.00
2019-06-26T08:19:02.809Z,4460.62
2019-06-26T08:20:02.792Z,4426.88
2019-06-26T08:21:12.331Z,4573.12
2019-06-26T08:22:03.776Z,4612.50
2019-06-26T08:23:02.810Z,4691.25
2019-06-26T08:24:02.756Z,4741.88
2019-06-26T08:25:02.745Z,4730.62
2019-06-26T08:26:02.742Z,4696.88
2019-06-26T08:27:02.735Z,4663.12
2019-06-26T08:28:02.749Z,4539.38
2019-06-26T08:29:02.706Z,4331.25
2019-06-26T08:30:02.708Z,4151.25
2019-06-26T08:31:02.697Z,4201.88
2019-06-26T08:32:02.688Z,4235.62
2019-06-26T08:33:02.673Z,4263.75
2019-06-26T08:34:02.677Z,4218.75
2019-06-26T08:35:02.757Z,4297.50
2019-06-26T08:36:02.649Z,4601.25
2019-06-26T08:37:02.640Z,4848.75
2019-06-26T08:38:11.094Z,4882.50
2019-06-26T08:39:03.627Z,4741.88
2019-06-26T08:40:02.609Z,4770.00
2019-06-26T08:41:02.598Z,4786.88
2019-06-26T08:42:02.603Z,4786.88
2019-06-26T08:43:02.586Z,4398.75
2019-06-26T08:44:02.595Z,4196.25
2019-06-26T08:45:02.574Z,4230.00
2019-06-26T08:46:02.554Z,4359.38
2019-06-26T08:47:02.547Z,4815.00
2019-06-26T08:48:16.710Z,4933.12
2019-06-26T08:49:03.560Z,4995.00
2019-06-26T08:50:02.932Z,4826.25
2019-06-26T08:51:02.520Z,4578.75
2019-06-26T08:52:02.644Z,4770.00
2019-06-26T08:53:02.589Z,4950.00
2019-06-26T08:54:04.774Z,4921.88
2019-06-26T08:55:02.483Z,4837.50
2019-06-26T08:56:02.478Z,5079.38
2019-06-26T08:57:02.456Z,5197.50
2019-06-26T08:58:02.447Z,5006.25
2019-06-26T08:59:02.440Z,4719.38
2019-06-26T09:00:02.458Z,4921.88
2019-06-26T09:01:02.428Z,5197.50
2019-06-26T09:02:02.417Z,5023.12
2019-06-26T09:03:02.404Z,5175.00
2019-06-26T09:04:02.391Z,5225.62
2019-06-26T09:05:02.392Z,5017.50
2019-06-26T09:06:02.387Z,5135.62
2019-06-26T09:07:02.393Z,4989.38
2019-06-26T09:08:02.407Z,4753.12
2019-06-26T09:09:02.415Z,5017.50
2019-06-26T09:10:02.352Z,5180.62
2019-06-26T09:11:02.338Z,5270.62
2019-06-26T09:12:02.327Z,5574.38
2019-06-26T09:13:02.339Z,5529.38
2019-06-26T09:14:02.307Z,5366.25
2019-06-26T09:15:02.298Z,5535.00
2019-06-26T09:16:02.292Z,5658.75
2019-06-26T09:17:02.301Z,5332.50
2019-06-26T09:18:02.286Z,5073.75
2019-06-26T09:19:02.310Z,4983.75
2019-06-26T09:20:02.275Z,5371.88
2019-06-26T09:21:02.266Z,5670.00
2019-06-26T09:22:02.245Z,5692.50
2019-06-26T09:23:02.406Z,5563.12
2019-06-26T09:24:02.233Z,5613.75
2019-06-26T09:25:19.822Z,5439.38
2019-06-26T09:26:03.229Z,5495.62
2019-06-26T09:27:02.197Z,5349.38
2019-06-26T09:28:02.220Z,5315.62
2019-06-26T09:29:02.188Z,5197.50
2019-06-26T09:30:02.177Z,5146.88
2019-06-26T09:31:02.189Z,4899.38
2019-06-26T09:32:02.169Z,4578.75
2019-06-26T09:33:02.154Z,4674.38
2019-06-26T09:34:02.153Z,4966.88
2019-06-26T09:35:02.149Z,4539.38
2019-06-26T09:36:02.185Z,4601.25
2019-06-26T09:37:02.118Z,4989.38
2019-06-26T09:38:02.116Z,5349.38
2019-06-26T09:39:02.126Z,5259.38
2019-06-26T09:40:02.098Z,5146.88
2019-06-26T09:41:02.203Z,5214.38
2019-06-26T09:42:02.076Z,5248.12
2019-06-26T09:43:02.078Z,5158.12
2019-06-26T09:44:02.067Z,5287.50
2019-06-26T09:45:02.145Z,5405.62
2019-06-26T09:46:02.075Z,5338.12
2019-06-26T09:47:02.039Z,4876.88
2019-06-26T09:48:02.037Z,4331.25
2019-06-26T09:49:02.019Z,4196.25
2019-06-26T09:50:02.115Z,5118.75
2019-06-26T09:51:02.031Z,6063.75
2019-06-26T09:52:02.012Z,5906.25
2019-06-26T09:53:05.209Z,5917.50
2019-06-26T09:54:01.984Z,5698.12
2019-06-26T09:55:02.082Z,5214.38
2019-06-26T09:56:01.997Z,4786.88
2019-06-26T09:57:01.963Z,4843.12
2019-06-26T09:58:01.959Z,5163.75
2019-06-26T09:59:01.935Z,5287.50
2019-06-26T10:00:01.996Z,5366.25
2019-06-26T10:01:01.926Z,5293.12
2019-06-26T10:02:01.919Z,5006.25
2019-06-26T10:03:01.999Z,4815.00
2019-06-26T10:04:01.904Z,5236.88
2019-06-26T10:05:01.887Z,5861.25
2019-06-26T10:06:02.002Z,5343.75
2019-06-26T10:07:01.876Z,4055.62
2019-06-26T10:08:01.878Z,3858.75
2019-06-26T10:09:01.864Z,4938.75
2019-06-26T10:10:01.848Z,5388.75
2019-06-26T10:11:01.907Z,4955.62
2019-06-26T10:12:01.834Z,5214.38
2019-06-26T10:13:01.848Z,5737.50
2019-06-26T10:14:01.817Z,5630.62
2019-06-26T10:15:01.892Z,4927.50
2019-06-26T10:16:01.812Z,4730.62
2019-06-26T10:17:01.801Z,5248.12
2019-06-26T10:18:01.793Z,6204.38
2019-06-26T10:19:10.132Z,6328.12
2019-06-26T10:20:02.771Z,6030.00
2019-06-26T10:21:01.919Z,5940.00
2019-06-26T10:22:01.767Z,6013.12
2019-06-26T10:23:01.776Z,5765.62
2019-06-26T10:24:01.755Z,5715.00
2019-06-26T10:25:01.860Z,5686.88
2019-06-26T10:26:01.764Z,5596.88
2019-06-26T10:27:01.721Z,5658.75
2019-06-26T10:28:02.501Z,6136.88
2019-06-26T10:29:01.703Z,6165.00
2019-06-26T10:30:01.712Z,5962.50
2019-06-26T10:31:01.694Z,5613.75
2019-06-26T10:32:01.735Z,5191.88
2019-06-26T10:33:01.674Z,5281.88
2019-06-26T10:34:01.721Z,5788.12
2019-06-26T10:35:01.660Z,5664.38
2019-06-26T10:36:01.659Z,4860.00
2019-06-26T10:37:01.660Z,4365.00
2019-06-26T10:38:01.661Z,4618.12
2019-06-26T10:39:01.651Z,4860.00
2019-06-26T10:40:01.642Z,4488.75
2019-06-26T10:41:01.615Z,4899.38
2019-06-26T10:42:01.616Z,5034.38
2019-06-26T10:43:01.599Z,5118.75
2019-06-26T10:44:01.598Z,5321.25
2019-06-26T10:45:01.644Z,5518.12
2019-06-26T10:46:01.598Z,5765.62
2019-06-26T10:47:01.574Z,5816.25
2019-06-26T10:48:01.566Z,5473.12
2019-06-26T10:49:01.559Z,5703.75
2019-06-26T10:50:01.560Z,6345.00
2019-06-26T10:51:01.540Z,6378.75
2019-06-26T10:52:01.550Z,5456.25
2019-06-26T10:53:01.562Z,4477.50
2019-06-26T10:54:01.527Z,4050.00
2019-06-26T10:55:01.516Z,4415.62
2019-06-26T10:56:01.514Z,4916.25
2019-06-26T10:57:01.508Z,4921.88
2019-06-26T10:58:01.501Z,4365.00
2019-06-26T10:59:01.531Z,3667.50
2019-06-26T11:00:01.512Z,3048.75
2019-06-26T11:01:01.480Z,2874.38
2019-06-26T11:02:01.458Z,3037.50
2019-06-26T11:03:01.468Z,3481.88
2019-06-26T11:04:01.579Z,4528.12
2019-06-26T11:05:01.438Z,5321.25
2019-06-26T11:06:01.483Z,5270.62
2019-06-26T11:07:01.439Z,5225.62
2019-06-26T11:08:01.415Z,5467.50
2019-06-26T11:09:01.409Z,5602.50
2019-06-26T11:10:01.473Z,5720.62
2019-06-26T11:11:01.396Z,5838.75
2019-06-26T11:12:01.419Z,5602.50
2019-06-26T11:13:01.379Z,5703.75
2019-06-26T11:14:01.368Z,5799.38
2019-06-26T11:15:01.470Z,5760.00
2019-06-26T11:16:01.358Z,5450.62
2019-06-26T11:17:01.350Z,5585.62
2019-06-26T11:18:01.350Z,5613.75
2019-06-26T11:19:01.340Z,5613.75
2019-06-26T11:20:01.357Z,5715.00
2019-06-26T11:21:01.322Z,6114.38
2019-06-26T11:22:01.314Z,6277.50
2019-06-26T11:23:01.375Z,6260.62
2019-06-26T11:24:01.296Z,5945.62
2019-06-26T11:25:01.289Z,5754.38
2019-06-26T11:26:01.286Z,5546.25
2019-06-26T11:27:01.280Z,5450.62
2019-06-26T11:28:01.267Z,5692.50
2019-06-26T11:29:01.266Z,5776.88
2019-06-26T11:30:01.272Z,5551.88
2019-06-26T11:31:01.250Z,5259.38
2019-06-26T11:32:01.253Z,5315.62
2019-06-26T11:33:01.275Z,5349.38
2019-06-26T11:34:01.214Z,5214.38
2019-06-26T11:35:01.209Z,5343.75
2019-06-26T11:36:01.204Z,5411.25
2019-06-26T11:37:04.114Z,5400.00
2019-06-26T11:38:01.185Z,5467.50
2019-06-26T11:39:01.193Z,5608.12
2019-06-26T11:40:01.170Z,5720.62
2019-06-26T11:41:02.064Z,5484.38
2019-06-26T11:42:01.154Z,5383.12
2019-06-26T11:43:01.155Z,5203.12
2019-06-26T11:44:01.162Z,5141.25
2019-06-26T11:45:01.159Z,5124.38
2019-06-26T11:46:01.152Z,5180.62
2019-06-26T11:47:01.122Z,5304.38
2019-06-26T11:48:01.121Z,5366.25
2019-06-26T11:49:01.111Z,5495.62
2019-06-26T11:50:01.091Z,5675.62
2019-06-26T11:51:01.084Z,6018.75
2019-06-26T11:52:01.094Z,5940.00
2019-06-26T11:53:01.075Z,5613.75
2019-06-26T11:54:01.068Z,5506.88
2019-06-26T11:55:03.037Z,5591.25
2019-06-26T11:56:01.047Z,5445.00
2019-06-26T11:57:01.060Z,5641.88
2019-06-26T11:58:01.029Z,5647.50
2019-06-26T11:59:01.029Z,5045.62
2019-06-26T12:00:01.169Z,3706.88
2019-06-26T12:01:01.027Z,2981.25
2019-06-26T12:02:01.023Z,2913.75
2019-06-26T12:03:01.074Z,3465.00
2019-06-26T12:04:00.981Z,4246.88
2019-06-26T12:05:00.984Z,5090.62
2019-06-26T12:06:15.266Z,5551.88
2019-06-26T12:07:02.022Z,5535.00
2019-06-26T12:08:00.976Z,5433.75
2019-06-26T12:09:00.941Z,5265.00
2019-06-26T12:10:01.065Z,5343.75
2019-06-26T12:11:00.937Z,5681.25
2019-06-26T12:12:00.939Z,5855.62
2019-06-26T12:13:04.022Z,5805.00
2019-06-26T12:14:00.909Z,5754.38
2019-06-26T12:15:00.905Z,5580.00
2019-06-26T12:16:00.898Z,5608.12
2019-06-26T12:17:00.889Z,5535.00
2019-06-26T12:18:00.904Z,5720.62
2019-06-26T12:19:00.864Z,5681.25
2019-06-26T12:20:17.306Z,5428.12
2019-06-26T12:21:01.855Z,5270.62
2019-06-26T12:22:00.849Z,5265.00
2019-06-26T12:23:00.845Z,5349.38
2019-06-26T12:24:00.836Z,5242.50
2019-06-26T12:25:00.949Z,5186.25
2019-06-26T12:26:00.819Z,5287.50
2019-06-26T12:27:00.796Z,5270.62
2019-06-26T12:28:00.794Z,5107.50